Time;durP1;ratioP1;P1;durP2;ratioP2;P2;SDS_P1;SDS_P2;PMS_P1;PMS_P2;Temp;Humidity;BMP_temperature;BMP_pressure;BME280_temperature;BME280_humidity;BME280_pressure;Samples;Min_cycle;Max_cycle;Signal;HPM_P1;HPM_P2
2023/02/22 00:00:42;;;;;;;61.28;22.23;;;;;;;5.90;88.52;101755.78;6088990;19;20018;-74
2023/02/22 00:02:48;;;;;;;65.05;21.20;;;;;;;5.81;88.40;101754.09;6093823;19;20291;-74
2023/02/22 00:04:53;;;;;;;72.93;23.92;;;;;;;5.79;88.97;101757.56;6088771;19;20511;-74
2023/02/22 00:07:00;;;;;;;64.70;22.35;;;;;;;5.78;89.01;101748.03;6090589;19;20122;-75
2023/02/22 00:09:08;;;;;;;65.22;23.33;;;;;;;5.88;88.72;101747.97;6089883;19;20640;-74
2023/02/22 00:11:13;;;;;;;71.35;23.00;;;;;;;5.88;88.46;101752.31;6093296;19;20577;-76
2023/02/22 00:13:21;;;;;;;64.72;21.73;;;;;;;5.87;88.54;101753.19;6092801;19;20032;-75
2023/02/22 00:15:29;;;;;;;65.15;21.67;;;;;;;5.76;89.05;101748.03;6093811;19;20018;-75
2023/02/22 00:17:37;;;;;;;63.33;22.58;;;;;;;5.71;89.48;101758.50;6092317;19;20011;-74
2023/02/22 00:19:44;;;;;;;68.68;21.55;;;;;;;5.72;89.14;101748.94;6091739;19;20003;-74
2023/02/22 00:21:54;;;;;;;60.17;20.80;;;;;;;5.69;89.20;101749.81;6091736;19;20390;-73
2023/02/22 00:23:59;;;;;;;69.45;23.55;;;;;;;5.69;89.39;101746.34;6090542;19;20021;-74
2023/02/22 00:26:05;;;;;;;67.00;23.23;;;;;;;5.67;89.09;101742.88;6090407;19;20490;-74
2023/02/22 00:28:14;;;;;;;72.78;23.10;;;;;;;5.56;89.28;101748.16;6086919;19;20035;-74
2023/02/22 00:30:22;;;;;;;68.10;24.38;;;;;;;5.49;89.54;101755.13;6091823;19;20011;-74
2023/02/22 00:32:27;;;;;;;63.72;23.25;;;;;;;5.53;89.47;101753.41;6093096;19;20010;-74
2023/02/22 00:34:35;;;;;;;76.28;26.80;;;;;;;5.41;89.25;101749.09;6091026;19;20014;-74
2023/02/22 00:36:48;;;;;;;63.17;20.73;;;;;;;5.47;89.51;101756.00;6090954;19;20010;-75
2023/02/22 00:38:55;;;;;;;63.92;21.15;;;;;;;5.48;89.13;101749.94;6087619;19;20018;-76
2023/02/22 00:41:02;;;;;;;68.88;24.08;;;;;;;5.53;88.97;101753.41;6090381;19;20081;-74
2023/02/22 00:43:08;;;;;;;67.47;21.85;;;;;;;5.50;88.97;101748.16;6090475;19;20024;-75
2023/02/22 00:45:14;;;;;;;65.57;23.27;;;;;;;5.52;88.88;101743.81;6091805;19;20617;-75
2023/02/22 00:47:19;;;;;;;61.25;21.42;;;;;;;5.50;88.58;101740.34;6091086;19;20015;-75
2023/02/22 00:49:25;;;;;;;68.63;21.98;;;;;;;5.53;88.95;101740.34;6089727;19;20019;-74
2023/02/22 00:51:33;;;;;;;59.75;22.35;;;;;;;5.39;89.03;101735.19;6092516;19;20042;-75
2023/02/22 00:53:38;;;;;;;65.90;24.85;;;;;;;5.40;88.88;101747.38;6085381;19;20015;-74
2023/02/22 00:55:43;;;;;;;66.47;24.80;;;;;;;5.36;89.38;101736.94;6084236;19;20015;-75
2023/02/22 00:57:48;;;;;;;64.53;22.08;;;;;;;5.35;89.06;101735.22;6086990;19;20007;-74
2023/02/22 00:59:53;;;;;;;61.33;22.13;;;;;;;5.41;88.95;101732.59;6086799;19;20516;-74
2023/02/22 01:01:59;;;;;;;59.22;21.55;;;;;;;5.40;89.13;101733.47;6091930;19;20007;-76
2023/02/22 01:04:05;;;;;;;75.97;25.25;;;;;;;5.32;89.15;101730.00;6089294;19;20014;-74
2023/02/22 01:06:13;;;;;;;68.65;25.13;;;;;;;5.28;89.32;101735.25;6089994;19;20034;-75
2023/02/22 01:08:24;;;;;;;69.70;24.90;;;;;;;5.15;89.00;101737.91;6085516;19;20052;-74
2023/02/22 01:10:31;;;;;;;62.97;22.45;;;;;;;5.17;88.96;101739.63;6087329;19;20548;-73
2023/02/22 01:12:37;;;;;;;65.13;23.38;;;;;;;5.14;88.61;101731.84;6085932;19;20471;-75
2023/02/22 01:14:43;;;;;;;61.20;21.35;;;;;;;5.03;88.99;101731.88;6088791;19;20010;-73
2023/02/22 01:16:49;;;;;;;62.55;22.50;;;;;;;5.06;89.16;101729.25;6091606;19;20023;-74
2023/02/22 01:18:55;;;;;;;68.40;23.13;;;;;;;4.98;89.54;101732.75;6085116;19;20102;-74
2023/02/22 01:21:03;;;;;;;70.65;21.83;;;;;;;4.93;89.49;101737.13;6085997;19;20007;-73
2023/02/22 01:23:10;;;;;;;62.45;23.85;;;;;;;4.91;89.73;101729.28;6091263;19;26296;-75
2023/02/22 01:25:22;;;;;;;63.00;22.35;;;;;;;5.10;88.78;101727.50;6090521;19;27453;-73
2023/02/22 01:27:27;;;;;;;75.25;24.13;;;;;;;4.96;89.43;101717.13;6089090;19;20023;-75
2023/02/22 01:29:32;;;;;;;60.85;19.98;;;;;;;5.04;89.28;101723.19;6087667;19;20632;-74
2023/02/22 01:31:38;;;;;;;57.33;20.45;;;;;;;5.07;89.42;101722.31;6092001;19;20024;-74
2023/02/22 01:33:45;;;;;;;63.38;23.02;;;;;;;5.08;89.55;101718.81;6089796;19;20020;-75
2023/02/22 01:35:53;;;;;;;68.68;24.00;;;;;;;5.06;89.36;101717.97;6092449;19;20656;-75
2023/02/22 01:37:59;;;;;;;63.95;23.35;;;;;;;5.10;89.47;101716.22;6091544;19;20479;-76
2023/02/22 01:40:06;;;;;;;65.03;23.35;;;;;;;5.00;89.73;101708.44;6091272;19;20340;-75
2023/02/22 01:42:13;;;;;;;70.53;24.27;;;;;;;5.04;89.57;101710.16;6090336;19;20015;-76
2023/02/22 01:44:27;;;;;;;64.72;23.13;;;;;;;4.97;89.69;101700.63;6096519;19;20077;-75
2023/02/22 01:46:33;;;;;;;73.30;24.20;;;;;;;4.80;90.02;101699.81;6091809;19;20545;-75
2023/02/22 01:48:43;;;;;;;66.93;22.38;;;;;;;4.76;90.65;101711.97;6088791;19;20015;-75
2023/02/22 01:50:55;;;;;;;68.15;22.65;;;;;;;4.79;90.44;101703.28;6096009;19;20011;-74
2023/02/22 01:53:01;;;;;;;74.85;24.17;;;;;;;4.75;90.40;101709.38;6085321;19;20007;-74
2023/02/22 01:55:07;;;;;;;74.80;24.98;;;;;;;4.66;90.98;101699.88;6094313;19;20039;-74
2023/02/22 01:57:21;;;;;;;61.70;22.10;;;;;;;4.78;90.40;101697.22;6097583;19;20066;-74
2023/02/22 01:59:27;;;;;;;74.80;24.70;;;;;;;4.79;90.44;101688.53;6097980;19;20043;-74
2023/02/22 02:01:37;;;;;;;65.00;22.67;;;;;;;4.84;89.96;101685.91;6092712;19;20018;-73
2023/02/22 02:03:43;;;;;;;59.38;21.05;;;;;;;4.87;89.89;101688.53;6095990;19;20015;-74
2023/02/22 02:05:54;;;;;;;65.95;24.75;;;;;;;4.80;90.45;101681.59;6093192;19;20039;-74
2023/02/22 02:08:03;;;;;;;66.15;23.80;;;;;;;4.80;90.20;101679.84;6096371;19;20632;-74
2023/02/22 02:10:13;;;;;;;69.60;24.05;;;;;;;4.72;90.76;101686.81;6099582;19;20010;-74
2023/02/22 02:12:24;;;;;;;71.18;24.33;;;;;;;4.67;90.85;101677.28;6092245;19;20014;-74
2023/02/22 02:14:32;;;;;;;71.72;25.38;;;;;;;4.64;90.86;101683.38;6097204;19;20079;-74
2023/02/22 02:16:42;;;;;;;81.10;27.55;;;;;;;4.55;91.25;101678.19;6102648;19;20368;-72
2023/02/22 02:18:52;;;;;;;69.85;26.63;;;;;;;4.54;91.05;101677.31;6097977;19;20466;-76
2023/02/22 02:21:35;;;;;;;62.05;20.20;;;;;;;4.50;90.99;101674.72;6093531;19;20006;-74
2023/02/22 02:24:04;;;;;;;64.57;22.75;;;;;;;4.43;90.97;101667.81;6097745;19;20010;-74
2023/02/22 02:26:39;;;;;;;62.60;22.52;;;;;;;4.40;91.26;101673.88;6098733;19;20824;-74
2023/02/22 02:29:10;;;;;;;65.35;22.80;;;;;;;4.33;91.48;101666.94;6092860;19;20477;-74
2023/02/22 02:31:44;;;;;;;66.60;23.13;;;;;;;4.30;91.78;101662.63;6097167;19;20015;-74
2023/02/22 02:34:04;;;;;;;69.20;23.35;;;;;;;4.33;91.66;101665.22;6100843;19;20011;-73
2023/02/22 02:36:17;;;;;;;67.57;21.70;;;;;;;4.35;91.57;101655.66;6095615;19;20276;-73
2023/02/22 02:38:35;;;;;;;67.00;24.83;;;;;;;4.33;92.12;101647.00;6095681;19;20082;-73
2023/02/22 02:40:48;;;;;;;63.42;22.35;;;;;;;4.44;91.43;101646.09;6094326;19;20070;-74
2023/02/22 02:42:59;;;;;;;80.65;22.90;;;;;;;4.44;91.66;101651.31;6095721;19;20010;-73
2023/02/22 02:45:11;;;;;;;66.18;23.90;;;;;;;4.37;91.93;101637.44;6094243;19;20077;-75
2023/02/22 02:47:21;;;;;;;64.55;24.23;;;;;;;4.48;91.28;101635.69;6095582;19;20048;-75
2023/02/22 02:49:33;;;;;;;67.30;25.60;;;;;;;4.48;91.85;101632.22;6094340;19;20357;-75
2023/02/22 02:51:41;;;;;;;69.25;23.00;;;;;;;4.45;91.83;101634.81;6096774;19;20017;-76
2023/02/22 02:53:50;;;;;;;73.25;25.75;;;;;;;4.47;91.81;101633.09;6090791;19;20070;-74
2023/02/22 02:55:56;;;;;;;71.32;25.17;;;;;;;4.36;92.37;101626.16;6097851;19;20022;-74
2023/02/22 02:58:03;;;;;;;68.22;24.65;;;;;;;4.35;92.33;101627.03;6096071;19;20011;-75
2023/02/22 03:00:21;;;;;;;67.72;23.92;;;;;;;4.32;92.62;101624.47;6095873;19;20315;-74
2023/02/22 03:02:40;;;;;;;71.05;23.27;;;;;;;4.40;92.36;101624.44;6096429;19;20098;-74
2023/02/22 03:05:08;;;;;;;76.55;23.70;;;;;;;4.47;92.26;101617.47;6100069;19;20010;-74
2023/02/22 03:07:25;;;;;;;81.50;26.20;;;;;;;4.37;92.53;101611.41;6095081;19;21216;-75
2023/02/22 03:09:41;;;;;;;68.75;24.17;;;;;;;4.48;92.24;101614.88;6101105;19;20222;-75
2023/02/22 03:12:00;;;;;;;74.80;24.58;;;;;;;4.30;92.86;101604.50;6101708;19;20009;-73
2023/02/22 03:14:18;;;;;;;73.57;23.33;;;;;;;4.33;92.63;101600.16;6095642;19;20014;-74
2023/02/22 03:16:33;;;;;;;71.43;25.10;;;;;;;4.24;93.00;101601.91;6098060;19;20331;-75
2023/02/22 03:18:48;;;;;;;81.53;24.42;;;;;;;4.22;93.25;101606.28;6094923;19;20083;-75
2023/02/22 03:21:09;;;;;;;74.97;24.48;;;;;;;4.30;93.11;101602.78;6087640;19;20072;-74
2023/02/22 03:23:24;;;;;;;72.43;25.63;;;;;;;4.23;93.30;101590.63;6092174;19;20103;-74
2023/02/22 03:25:35;;;;;;;72.78;25.98;;;;;;;4.18;93.54;101585.44;6089127;19;20014;-74
2023/02/22 03:27:45;;;;;;;83.43;24.98;;;;;;;4.14;93.71;101582.88;6090606;19;20014;-74
2023/02/22 03:29:54;;;;;;;66.20;24.70;;;;;;;4.17;93.36;101582.84;6087770;19;23801;-74
2023/02/22 03:32:01;;;;;;;79.00;25.95;;;;;;;4.24;93.13;101579.38;6088938;19;20018;-76
2023/02/22 03:34:12;;;;;;;63.17;23.33;;;;;;;4.26;93.12;101576.75;6095414;19;20028;-75
2023/02/22 03:36:26;;;;;;;67.60;24.10;;;;;;;4.31;92.99;101569.81;6089230;19;20027;-76
2023/02/22 03:38:38;;;;;;;72.85;24.55;;;;;;;4.36;92.91;101573.25;6089494;19;20035;-76
2023/02/22 03:40:47;;;;;;;72.25;24.48;;;;;;;4.36;92.93;101576.72;6089561;19;20011;-75
2023/02/22 03:42:58;;;;;;;67.85;25.33;;;;;;;4.38;92.66;101571.53;6088536;19;20039;-73
2023/02/22 03:45:08;;;;;;;70.45;22.98;;;;;;;4.34;92.58;101560.25;6090486;19;20151;-75
2023/02/22 03:47:20;;;;;;;62.85;21.30;;;;;;;4.26;92.96;101562.00;6090389;19;20037;-75
2023/02/22 03:49:32;;;;;;;65.55;24.25;;;;;;;4.16;93.61;101556.00;6094663;19;20574;-76
2023/02/22 03:51:42;;;;;;;66.60;23.77;;;;;;;4.25;93.18;101554.22;6098206;19;20066;-74
2023/02/22 03:53:51;;;;;;;67.10;23.48;;;;;;;4.22;93.34;101552.50;6091511;19;20516;-75
2023/02/22 03:55:59;;;;;;;68.55;23.85;;;;;;;4.27;93.38;101539.47;6096056;19;20047;-75
2023/02/22 03:58:08;;;;;;;68.75;23.05;;;;;;;4.32;93.26;101546.41;6093776;19;20010;-75
2023/02/22 04:00:18;;;;;;;58.95;24.33;;;;;;;4.30;93.44;101536.88;6095962;19;20337;-74
2023/02/22 04:02:26;;;;;;;58.42;19.90;;;;;;;4.37;93.26;101534.25;6089688;19;20010;-74
2023/02/22 04:04:32;;;;;;;65.82;25.25;;;;;;;4.34;93.18;101530.75;6091377;19;20015;-74
2023/02/22 04:06:40;;;;;;;68.63;25.80;;;;;;;4.32;93.26;101533.38;6090015;19;20010;-74
2023/02/22 04:08:45;;;;;;;66.03;23.73;;;;;;;4.35;93.01;101522.97;6089377;19;20114;-75
2023/02/22 04:10:50;;;;;;;77.53;26.65;;;;;;;4.25;93.14;101516.06;6091013;19;20090;-73
2023/02/22 04:12:55;;;;;;;73.95;24.45;;;;;;;4.27;93.29;101522.13;6087328;19;20245;-74
2023/02/22 04:15:03;;;;;;;78.93;25.08;;;;;;;4.11;93.98;101521.31;6089830;19;20055;-75
2023/02/22 04:17:11;;;;;;;76.85;24.63;;;;;;;4.12;94.26;101514.38;6091376;19;20035;-73
2023/02/22 04:19:16;;;;;;;72.22;23.45;;;;;;;4.21;94.10;101511.72;6089536;19;20013;-74
2023/02/22 04:21:21;;;;;;;70.18;25.92;;;;;;;4.19;93.78;101513.50;6092476;19;20735;-75
2023/02/22 04:25:46;;;;;;;80.15;27.10;;;;;;;4.10;94.45;101522.16;6091553;19;20108;-75
2023/02/22 04:27:51;;;;;;;71.45;24.70;;;;;;;4.11;94.46;101513.50;6093545;19;20078;-74
2023/02/22 04:29:56;;;;;;;79.82;26.90;;;;;;;4.13;94.68;101510.88;6089385;19;20003;-75
2023/02/22 04:32:01;;;;;;;73.30;24.80;;;;;;;4.13;94.59;101516.97;6091681;19;20014;-75
2023/02/22 04:34:07;;;;;;;66.82;25.75;;;;;;;4.09;94.65;101506.59;6093140;19;20003;-74
2023/02/22 04:36:14;;;;;;;71.82;23.90;;;;;;;4.15;94.48;101510.00;6095843;19;20338;-75
2023/02/22 04:38:20;;;;;;;69.28;23.63;;;;;;;4.18;94.62;101509.13;6092265;19;20014;-75
2023/02/22 04:40:28;;;;;;;71.60;25.45;;;;;;;4.13;94.68;101503.09;6094753;19;23666;-75
2023/02/22 04:42:34;;;;;;;81.72;26.02;;;;;;;4.10;94.90;101506.56;6094774;19;20007;-75
2023/02/22 04:44:40;;;;;;;83.93;28.02;;;;;;;4.09;95.18;101502.25;6092051;19;20109;-75
2023/02/22 04:46:45;;;;;;;77.43;26.65;;;;;;;4.10;95.18;101503.09;6095890;19;20010;-75
2023/02/22 04:48:54;;;;;;;69.32;23.67;;;;;;;4.22;94.78;101500.47;6087671;19;20495;-74
2023/02/22 04:50:59;;;;;;;69.85;23.25;;;;;;;4.25;94.83;101492.66;6092301;19;20714;-73
2023/02/22 04:53:04;;;;;;;72.75;26.17;;;;;;;4.20;94.93;101493.53;6086895;19;20011;-74
2023/02/22 04:55:11;;;;;;;85.63;28.23;;;;;;;4.21;95.05;101488.31;6097581;19;20027;-75
2023/02/22 04:57:19;;;;;;;79.57;26.55;;;;;;;4.16;95.43;101490.06;6096450;19;20010;-75
2023/02/22 04:59:24;;;;;;;93.25;28.60;;;;;;;4.21;95.50;101482.25;6087564;19;20620;-75
2023/02/22 05:01:34;;;;;;;90.25;26.63;;;;;;;4.20;95.37;101488.34;6089965;19;20058;-76
2023/02/22 05:03:41;;;;;;;90.72;27.10;;;;;;;4.23;95.59;101488.31;6091092;19;20062;-76
2023/02/22 05:05:46;;;;;;;79.78;27.15;;;;;;;4.31;95.16;101497.81;6093566;19;20025;-75
2023/02/22 05:07:52;;;;;;;83.13;26.77;;;;;;;4.26;95.35;101494.38;6087547;19;20017;-75
2023/02/22 05:09:57;;;;;;;76.53;26.50;;;;;;;4.22;95.78;101491.81;6086342;19;20018;-76
2023/02/22 05:12:02;;;;;;;68.75;25.08;;;;;;;4.20;95.92;101494.41;6091071;19;20475;-74
2023/02/22 05:14:11;;;;;;;77.32;22.80;;;;;;;4.26;95.59;101494.38;6088052;19;20002;-75
2023/02/22 05:16:16;;;;;;;72.18;24.40;;;;;;;4.18;95.82;101498.75;6090925;19;20010;-74
2023/02/22 05:18:21;;;;;;;65.25;22.20;;;;;;;4.19;95.85;101487.47;6089509;19;20035;-75
2023/02/22 05:20:32;;;;;;;63.83;20.25;;;;;;;4.15;96.14;101477.94;6092075;19;20061;-74
2023/02/22 05:22:42;;;;;;;72.55;23.75;;;;;;;4.16;96.17;101471.84;6091886;19;20018;-73
2023/02/22 05:24:51;;;;;;;69.55;22.25;;;;;;;4.11;96.32;101468.44;6091599;19;20014;-73
2023/02/22 05:26:56;;;;;;;66.53;22.58;;;;;;;4.18;96.25;101475.31;6082875;19;20007;-75
2023/02/22 05:29:04;;;;;;;82.15;22.20;;;;;;;4.24;95.99;101471.81;6094255;19;20019;-74
2023/02/22 05:31:16;;;;;;;73.75;25.02;;;;;;;4.19;96.27;101482.28;6088019;19;20630;-75
2023/02/22 05:33:22;;;;;;;62.30;21.80;;;;;;;4.23;96.27;101476.16;6093109;19;20015;-76
2023/02/22 05:35:27;;;;;;;70.22;21.70;;;;;;;4.30;96.10;101474.44;6094868;19;20073;-74
2023/02/22 05:37:36;;;;;;;71.32;23.10;;;;;;;4.29;96.19;101465.75;6090772;19;20234;-74
2023/02/22 05:39:41;;;;;;;72.43;24.42;;;;;;;4.23;96.85;101470.97;6092268;19;20432;-75
2023/02/22 05:41:46;;;;;;;74.65;22.90;;;;;;;4.20;97.02;101475.34;6094587;19;20013;-74
2023/02/22 05:43:51;;;;;;;64.70;22.33;;;;;;;4.17;97.01;101461.47;6093278;19;20038;-74
2023/02/22 05:45:59;;;;;;;58.90;19.63;;;;;;;4.18;97.11;101455.38;6094057;19;20034;-73
2023/02/22 05:48:07;;;;;;;64.15;22.25;;;;;;;4.15;97.13;101455.38;6096000;19;20014;-73
2023/02/22 05:50:12;;;;;;;67.00;20.63;;;;;;;4.23;97.22;101450.16;6091598;19;20631;-74
2023/02/22 05:52:20;;;;;;;59.90;20.35;;;;;;;4.28;96.95;101450.16;6099931;19;20006;-74
2023/02/22 05:54:25;;;;;;;64.10;23.33;;;;;;;4.27;96.93;101444.09;6099308;19;20010;-76
2023/02/22 05:56:31;;;;;;;60.28;19.90;;;;;;;4.27;96.80;101438.03;6094982;19;20017;-75
2023/02/22 05:58:37;;;;;;;70.05;22.95;;;;;;;4.30;96.92;101431.06;6098400;19;20026;-74
2023/02/22 06:00:42;;;;;;;65.13;21.73;;;;;;;4.38;96.79;101421.47;6094143;19;20510;-74
2023/02/22 06:02:47;;;;;;;69.72;22.77;;;;;;;4.42;96.47;101424.03;6098805;19;20016;-75
2023/02/22 06:04:55;;;;;;;63.30;23.05;;;;;;;4.44;96.34;101410.16;6095288;19;20013;-77
2023/02/22 06:07:02;;;;;;;57.90;18.50;;;;;;;4.43;96.13;101413.66;6088500;19;20209;-76
2023/02/22 06:09:07;;;;;;;57.85;20.80;;;;;;;4.42;96.22;101416.25;6097851;19;20014;-76
2023/02/22 06:11:12;;;;;;;60.83;19.60;;;;;;;4.38;96.29;101415.41;6092046;19;20010;-76
2023/02/22 06:13:20;;;;;;;61.33;21.33;;;;;;;4.42;96.38;101405.84;6096213;19;20031;-75
2023/02/22 06:15:28;;;;;;;59.78;22.02;;;;;;;4.43;96.73;101402.38;6098999;19;20011;-74
2023/02/22 06:17:33;;;;;;;63.45;23.35;;;;;;;4.45;96.72;101400.59;6095380;19;20090;-74
2023/02/22 06:19:39;;;;;;;58.55;19.77;;;;;;;4.42;96.50;101400.63;6100259;19;20015;-74
2023/02/22 06:21:53;;;;;;;59.30;19.02;;;;;;;4.37;96.27;101403.25;6093482;19;20483;-73
2023/02/22 06:23:58;;;;;;;52.83;17.38;;;;;;;4.35;96.63;101411.09;6094070;19;20109;-73
2023/02/22 06:26:03;;;;;;;48.90;16.77;;;;;;;4.31;96.39;101409.34;6095560;19;20151;-73
2023/02/22 06:28:08;;;;;;;54.65;18.17;;;;;;;4.35;96.14;101407.63;6091401;19;20014;-74
2023/02/22 06:30:17;;;;;;;59.10;20.77;;;;;;;4.32;96.46;101411.09;6094191;19;20015;-75
2023/02/22 06:32:22;;;;;;;54.63;21.02;;;;;;;4.29;96.61;101413.72;6094517;19;20014;-74
2023/02/22 06:34:27;;;;;;;87.07;21.98;;;;;;;4.26;96.86;101420.66;6100345;19;20029;-74
2023/02/22 06:36:35;;;;;;;60.40;20.15;;;;;;;4.23;97.04;101431.94;6095623;19;20013;-74
2023/02/22 06:38:45;;;;;;;56.00;20.45;;;;;;;4.16;97.26;101428.53;6088381;19;20003;-75
2023/02/22 06:40:54;;;;;;;61.47;21.38;;;;;;;4.23;97.12;101441.50;6085819;19;20471;-74
2023/02/22 06:43:02;;;;;;;57.40;18.88;;;;;;;4.24;97.07;101438.91;6090096;19;20447;-75
2023/02/22 06:45:10;;;;;;;52.83;19.77;;;;;;;4.27;97.34;101427.63;6090091;19;20074;-73
2023/02/22 06:47:16;;;;;;;53.25;19.23;;;;;;;4.35;97.00;101408.47;6085619;19;20039;-75
2023/02/22 06:49:22;;;;;;;50.97;18.02;;;;;;;4.39;96.56;101402.38;6092610;19;20022;-75
2023/02/22 06:51:27;;;;;;;55.42;19.45;;;;;;;4.42;96.56;101411.03;6092795;19;20030;-76
2023/02/22 06:53:34;;;;;;;50.92;17.77;;;;;;;4.38;96.42;101420.59;6086487;19;20015;-75
2023/02/22 06:55:41;;;;;;;55.20;18.48;;;;;;;4.28;96.56;101434.53;6095107;19;20019;-75
2023/02/22 06:57:46;;;;;;;49.13;18.33;;;;;;;4.22;96.83;101417.22;6091142;19;20027;-75
2023/02/22 06:59:51;;;;;;;47.92;19.08;;;;;;;4.23;96.86;101418.09;6089354;19;20011;-74
2023/02/22 07:01:58;;;;;;;54.97;18.85;;;;;;;4.32;96.76;101429.31;6094748;19;20019;-74
2023/02/22 07:04:02;;;;;;;53.95;19.33;;;;;;;4.34;96.54;101422.34;6092208;19;20522;-74
2023/02/22 07:06:09;;;;;;;58.08;19.02;;;;;;;4.31;96.80;101439.72;6092759;19;20006;-74
2023/02/22 07:08:15;;;;;;;53.45;20.10;;;;;;;4.34;96.82;101435.34;6073599;19;20463;-74
2023/02/22 07:10:24;;;;;;;49.20;18.42;;;;;;;4.32;96.84;101437.13;6095227;19;20357;-74
2023/02/22 07:12:32;;;;;;;54.30;20.45;;;;;;;4.42;96.72;101437.06;6095969;19;20015;-77
2023/02/22 07:14:40;;;;;;;50.05;17.00;;;;;;;4.45;96.58;101427.50;6089355;19;20010;-76
2023/02/22 07:16:45;;;;;;;56.20;20.77;;;;;;;4.40;96.36;101439.69;6094766;19;20026;-75
2023/02/22 07:18:50;;;;;;;49.58;18.83;;;;;;;4.45;96.16;101437.03;6094002;19;20023;-74
2023/02/22 07:20:57;;;;;;;49.80;18.40;;;;;;;4.53;96.19;101440.44;6090247;19;20014;-75
2023/02/22 07:23:03;;;;;;;57.85;20.75;;;;;;;4.52;96.28;101430.94;6097574;19;20021;-75
2023/02/22 07:25:13;;;;;;;59.05;20.35;;;;;;;4.54;96.25;101442.19;6100262;19;20006;-74
2023/02/22 07:27:18;;;;;;;56.30;19.02;;;;;;;4.48;96.47;101437.03;6106503;19;20015;-75
2023/02/22 07:29:26;;;;;;;53.55;19.45;;;;;;;4.60;96.19;101437.81;6098595;19;20017;-75
2023/02/22 07:31:37;;;;;;;51.67;18.95;;;;;;;4.60;95.76;101436.94;6095367;19;20021;-75
2023/02/22 07:33:43;;;;;;;59.20;21.92;;;;;;;4.55;95.88;101436.97;6090784;19;20031;-75
2023/02/22 07:35:50;;;;;;;47.83;17.45;;;;;;;4.60;95.83;101439.56;6090433;19;20010;-75
2023/02/22 07:37:58;;;;;;;55.40;19.17;;;;;;;4.51;96.04;101447.44;6087075;19;20027;-75
2023/02/22 07:40:03;;;;;;;46.72;18.17;;;;;;;4.50;96.05;101449.19;6091642;19;20366;-73
2023/02/22 07:42:08;;;;;;;57.10;19.27;;;;;;;4.57;95.99;101444.78;6090437;19;20074;-73
2023/02/22 07:44:13;;;;;;;56.50;19.42;;;;;;;4.55;95.88;101441.31;6091654;19;20012;-74
2023/02/22 07:46:21;;;;;;;49.17;18.77;;;;;;;4.60;95.74;101452.56;6089348;19;20038;-74
2023/02/22 07:48:29;;;;;;;56.13;19.52;;;;;;;4.60;96.14;101452.56;6092760;19;20439;-73
2023/02/22 07:50:37;;;;;;;53.28;19.52;;;;;;;4.62;95.90;101445.63;6088613;19;20019;-74
2023/02/22 07:52:48;;;;;;;55.00;20.70;;;;;;;4.59;96.17;101448.25;6081045;19;20069;-74
2023/02/22 07:54:53;;;;;;;54.17;17.98;;;;;;;4.65;95.97;101445.59;6081308;19;20014;-76
2023/02/22 07:56:58;;;;;;;56.13;19.30;;;;;;;4.68;95.78;101444.72;6084950;19;20013;-76
2023/02/22 07:59:03;;;;;;;56.65;20.88;;;;;;;4.69;95.78;101447.31;6089127;19;20002;-75
2023/02/22 08:01:09;;;;;;;63.63;20.75;;;;;;;4.70;95.61;101432.56;6089749;19;20015;-75
2023/02/22 08:03:20;;;;;;;51.30;19.15;;;;;;;4.69;95.82;101431.69;6090765;19;20406;-74
2023/02/22 08:05:28;;;;;;;50.17;19.33;;;;;;;4.76;95.52;101428.16;6089118;19;20086;-74
2023/02/22 08:07:33;;;;;;;50.05;18.67;;;;;;;4.76;95.28;101420.34;6088315;19;20510;-75
2023/02/22 08:09:38;;;;;;;53.10;20.73;;;;;;;4.77;95.54;101422.09;6090389;19;20007;-76
2023/02/22 08:11:43;;;;;;;56.78;19.77;;;;;;;4.83;95.25;101414.22;6085534;19;20077;-74
2023/02/22 08:13:48;;;;;;;50.28;19.63;;;;;;;4.89;95.08;101415.06;6090045;19;20035;-74
2023/02/22 08:15:54;;;;;;;53.83;19.27;;;;;;;4.84;94.84;101410.75;6088959;19;20015;-74
2023/02/22 08:18:01;;;;;;;56.70;18.92;;;;;;;4.90;94.73;101408.97;6088113;19;20344;-75
2023/02/22 08:20:09;;;;;;;59.08;21.10;;;;;;;4.93;95.02;101406.34;6087692;19;20010;-75
2023/02/22 08:22:14;;;;;;;54.85;19.02;;;;;;;4.95;94.80;101408.06;6089896;19;20010;-74
2023/02/22 08:24:20;;;;;;;51.78;20.52;;;;;;;4.99;94.97;101404.53;6087767;19;20010;-77
2023/02/22 08:26:25;;;;;;;49.10;18.80;;;;;;;4.98;94.55;101401.97;6089552;19;20582;-73
2023/02/22 08:28:30;;;;;;;54.72;19.30;;;;;;;5.06;94.26;101407.97;6087759;19;20164;-75
2023/02/22 08:30:36;;;;;;;53.42;20.75;;;;;;;4.99;94.45;101399.34;6086047;19;20018;-74
2023/02/22 08:32:46;;;;;;;48.33;17.00;;;;;;;4.99;94.74;101399.34;6085028;19;20370;-75
2023/02/22 08:34:51;;;;;;;46.08;19.38;;;;;;;5.03;94.64;101401.06;6089694;19;20122;-76
2023/02/22 08:36:59;;;;;;;46.22;17.67;;;;;;;5.08;94.43;101398.38;6083489;19;20134;-76
2023/02/22 08:39:04;;;;;;;50.00;19.77;;;;;;;5.14;94.19;101393.16;6084738;19;20082;-75
2023/02/22 08:41:10;;;;;;;58.75;21.05;;;;;;;5.17;93.76;101397.47;6088059;19;20013;-75
2023/02/22 08:43:16;;;;;;;52.22;17.85;;;;;;;5.26;93.45;101382.59;6085341;19;20047;-74
2023/02/22 08:45:21;;;;;;;47.75;18.42;;;;;;;5.34;93.65;101377.28;6088995;19;20066;-73
2023/02/22 08:47:27;;;;;;;55.05;19.92;;;;;;;5.36;93.41;101372.09;6088686;19;20035;-73
2023/02/22 08:49:33;;;;;;;46.13;17.63;;;;;;;5.43;93.34;101373.75;6091921;19;20607;-74
2023/02/22 08:51:39;;;;;;;45.70;18.45;;;;;;;5.46;92.77;101374.56;6086862;19;20504;-75
2023/02/22 08:53:47;;;;;;;44.50;16.58;;;;;;;5.49;93.04;101365.84;6063491;19;20079;-74
2023/02/22 08:55:52;;;;;;;50.03;20.48;;;;;;;5.53;92.60;101370.16;6085910;19;20015;-74
2023/02/22 08:57:58;;;;;;;60.55;20.10;;;;;;;5.53;92.62;101380.59;6086580;19;20035;-74
2023/02/22 09:00:03;;;;;;;50.20;19.10;;;;;;;5.45;92.72;101366.75;6087679;19;20089;-73
2023/02/22 09:02:19;;;;;;;53.90;19.08;;;;;;;5.44;92.40;101370.25;6086485;19;20014;-73
2023/02/22 09:04:24;;;;;;;49.10;17.83;;;;;;;5.53;92.05;101362.34;6084480;19;20021;-74
2023/02/22 09:06:30;;;;;;;42.00;18.10;;;;;;;5.42;91.92;101352.00;6085953;19;20032;-76
2023/02/22 09:08:35;;;;;;;40.92;16.85;;;;;;;5.54;91.85;101340.59;6088212;19;20384;-74
2023/02/22 09:10:52;;;;;;;47.10;17.92;;;;;;;5.49;91.38;101342.41;6062118;19;20047;-74
2023/02/22 09:12:59;;;;;;;44.72;17.48;;;;;;;5.51;91.76;101343.25;6080972;19;20062;-76
2023/02/22 09:15:05;;;;;;;38.60;15.93;;;;;;;5.57;91.41;101356.19;6087412;19;20015;-75
2023/02/22 09:17:10;;;;;;;44.40;18.30;;;;;;;5.48;91.64;101362.41;6089315;19;20035;-75
2023/02/22 09:19:15;;;;;;;47.58;19.10;;;;;;;5.56;91.91;101359.69;6090526;19;20392;-74
2023/02/22 09:21:20;;;;;;;44.17;17.10;;;;;;;5.70;91.70;101364.75;6085302;19;20086;-74
2023/02/22 09:23:26;;;;;;;36.65;15.93;;;;;;;5.80;91.05;101362.91;6087860;19;20700;-75
2023/02/22 09:25:33;;;;;;;41.33;18.27;;;;;;;5.75;90.83;101364.69;6087772;19;20047;-74
2023/02/22 09:27:42;;;;;;;43.83;18.13;;;;;;;5.76;90.81;101371.63;6085595;19;20208;-74
2023/02/22 09:29:50;;;;;;;43.08;19.92;;;;;;;5.84;90.53;101373.25;6088962;19;20027;-74
2023/02/22 09:31:58;;;;;;;44.95;18.58;;;;;;;5.92;90.57;101380.97;6088726;19;20475;-74
2023/02/22 09:34:05;;;;;;;42.38;15.27;;;;;;;5.99;90.16;101392.25;6085542;19;20307;-74
2023/02/22 09:36:13;;;;;;;44.58;16.77;;;;;;;5.96;90.31;101377.50;6085434;19;20038;-74
2023/02/22 09:38:21;;;;;;;43.35;16.63;;;;;;;6.00;89.89;101397.44;6089823;19;20037;-74
2023/02/22 09:40:29;;;;;;;38.42;16.20;;;;;;;6.05;89.84;101395.63;6085840;19;20412;-74
2023/02/22 09:42:44;;;;;;;41.15;17.70;;;;;;;5.97;89.38;101407.06;6085891;19;20015;-74
2023/02/22 09:44:54;;;;;;;39.13;15.75;;;;;;;5.95;89.54;101404.47;6080527;19;20032;-75
2023/02/22 09:47:09;;;;;;;38.65;16.50;;;;;;;5.94;89.12;101406.19;6078774;19;20031;-74
2023/02/22 09:49:24;;;;;;;41.35;16.35;;;;;;;5.97;89.40;101413.13;6087972;19;20007;-76
2023/02/22 09:51:37;;;;;;;39.67;17.67;;;;;;;5.94;89.00;101400.13;6083158;19;20002;-77